sensor_id;sensor_type;location;lat;lon;timestamp;P1;durP1;ratioP1;P2;durP2;ratioP2
18818;SDS011;9537;45.594;9.294;2022-11-04T00:00:52;4.57;;;3.20;;
18818;SDS011;9537;45.594;9.294;2022-11-04T00:01:54;4.77;;;3.07;;
18818;SDS011;9537;45.594;9.294;2022-11-04T00:02:56;3.70;;;3.37;;
18818;SDS011;9537;45.594;9.294;2022-11-04T00:03:58;4.83;;;3.30;;
18818;SDS011;9537;45.594;9.294;2022-11-04T00:05:01;4.20;;;3.13;;
18818;SDS011;9537;45.594;9.294;2022-11-04T00:06:02;4.20;;;3.30;;
18818;SDS011;9537;45.594;9.294;2022-11-04T00:07:04;3.33;;;3.03;;
18818;SDS011;9537;45.594;9.294;2022-11-04T00:08:26;3.30;;;2.73;;
18818;SDS011;9537;45.594;9.294;2022-11-04T00:09:28;3.43;;;2.90;;
18818;SDS011;9537;45.594;9.294;2022-11-04T00:10:30;3.83;;;3.33;;
18818;SDS011;9537;45.594;9.294;2022-11-04T00:11:46;3.63;;;3.10;;
18818;SDS011;9537;45.594;9.294;2022-11-04T00:13:08;3.77;;;3.30;;
18818;SDS011;9537;45.594;9.294;2022-11-04T00:14:09;3.90;;;3.10;;
18818;SDS011;9537;45.594;9.294;2022-11-04T00:15:13;4.17;;;3.23;;
18818;SDS011;9537;45.594;9.294;2022-11-04T00:16:32;3.17;;;2.70;;
18818;SDS011;9537;45.594;9.294;2022-11-04T00:17:48;3.50;;;2.60;;
18818;SDS011;9537;45.594;9.294;2022-11-04T00:18:50;4.20;;;2.80;;
18818;SDS011;9537;45.594;9.294;2022-11-04T00:19:52;3.70;;;2.87;;
18818;SDS011;9537;45.594;9.294;2022-11-04T00:21:24;2.63;;;2.43;;
18818;SDS011;9537;45.594;9.294;2022-11-04T00:22:46;3.27;;;2.60;;
18818;SDS011;9537;45.594;9.294;2022-11-04T00:24:07;3.73;;;2.80;;
18818;SDS011;9537;45.594;9.294;2022-11-04T00:25:28;4.87;;;2.83;;
18818;SDS011;9537;45.594;9.294;2022-11-04T00:26:48;3.90;;;3.07;;
18818;SDS011;9537;45.594;9.294;2022-11-04T00:28:05;3.87;;;3.17;;
18818;SDS011;9537;45.594;9.294;2022-11-04T00:29:29;5.07;;;2.93;;
18818;SDS011;9537;45.594;9.294;2022-11-04T00:30:31;3.93;;;3.10;;
18818;SDS011;9537;45.594;9.294;2022-11-04T00:31:32;7.67;;;3.93;;
18818;SDS011;9537;45.594;9.294;2022-11-04T00:32:51;3.70;;;3.03;;
18818;SDS011;9537;45.594;9.294;2022-11-04T00:34:10;4.90;;;3.00;;
18818;SDS011;9537;45.594;9.294;2022-11-04T00:35:12;4.77;;;3.67;;
18818;SDS011;9537;45.594;9.294;2022-11-04T00:36:13;3.67;;;3.17;;
18818;SDS011;9537;45.594;9.294;2022-11-04T00:37:16;4.67;;;3.53;;
18818;SDS011;9537;45.594;9.294;2022-11-04T00:38:17;4.73;;;3.07;;
18818;SDS011;9537;45.594;9.294;2022-11-04T00:39:20;4.97;;;3.60;;
18818;SDS011;9537;45.594;9.294;2022-11-04T00:40:20;3.93;;;3.53;;
18818;SDS011;9537;45.594;9.294;2022-11-04T00:41:22;6.30;;;4.07;;
18818;SDS011;9537;45.594;9.294;2022-11-04T00:42:26;4.47;;;3.37;;
18818;SDS011;9537;45.594;9.294;2022-11-04T00:43:29;5.07;;;4.00;;
18818;SDS011;9537;45.594;9.294;2022-11-04T00:44:31;11.10;;;4.03;;
18818;SDS011;9537;45.594;9.294;2022-11-04T00:45:33;4.10;;;3.70;;
18818;SDS011;9537;45.594;9.294;2022-11-04T00:46:34;8.13;;;4.03;;
18818;SDS011;9537;45.594;9.294;2022-11-04T00:47:37;5.33;;;3.63;;
18818;SDS011;9537;45.594;9.294;2022-11-04T00:48:38;4.77;;;3.67;;
18818;SDS011;9537;45.594;9.294;2022-11-04T00:49:42;4.17;;;3.43;;
18818;SDS011;9537;45.594;9.294;2022-11-04T00:50:43;5.57;;;4.40;;
18818;SDS011;9537;45.594;9.294;2022-11-04T00:51:45;4.37;;;3.63;;
18818;SDS011;9537;45.594;9.294;2022-11-04T00:52:46;5.17;;;3.73;;
18818;SDS011;9537;45.594;9.294;2022-11-04T00:53:49;5.20;;;3.77;;
18818;SDS011;9537;45.594;9.294;2022-11-04T00:54:50;4.67;;;3.87;;
18818;SDS011;9537;45.594;9.294;2022-11-04T00:55:52;4.53;;;3.70;;
18818;SDS011;9537;45.594;9.294;2022-11-04T00:56:59;4.80;;;3.67;;
18818;SDS011;9537;45.594;9.294;2022-11-04T00:58:01;5.23;;;4.20;;
18818;SDS011;9537;45.594;9.294;2022-11-04T00:59:03;4.90;;;3.60;;
18818;SDS011;9537;45.594;9.294;2022-11-04T01:00:06;6.13;;;4.00;;
18818;SDS011;9537;45.594;9.294;2022-11-04T01:01:10;3.87;;;3.40;;
18818;SDS011;9537;45.594;9.294;2022-11-04T01:02:12;5.73;;;3.70;;
18818;SDS011;9537;45.594;9.294;2022-11-04T01:03:14;7.23;;;4.07;;
18818;SDS011;9537;45.594;9.294;2022-11-04T01:04:16;5.10;;;4.00;;
18818;SDS011;9537;45.594;9.294;2022-11-04T01:05:18;4.13;;;3.50;;
18818;SDS011;9537;45.594;9.294;2022-11-04T01:06:20;4.30;;;3.80;;
18818;SDS011;9537;45.594;9.294;2022-11-04T01:07:22;4.80;;;3.37;;
18818;SDS011;9537;45.594;9.294;2022-11-04T01:08:23;4.40;;;3.27;;
18818;SDS011;9537;45.594;9.294;2022-11-04T01:09:26;3.37;;;3.00;;
18818;SDS011;9537;45.594;9.294;2022-11-04T01:10:28;4.13;;;3.00;;
18818;SDS011;9537;45.594;9.294;2022-11-04T01:11:31;3.90;;;3.00;;
18818;SDS011;9537;45.594;9.294;2022-11-04T01:12:32;4.83;;;3.40;;
18818;SDS011;9537;45.594;9.294;2022-11-04T01:13:35;3.57;;;2.93;;
18818;SDS011;9537;45.594;9.294;2022-11-04T01:14:36;3.27;;;2.67;;
18818;SDS011;9537;45.594;9.294;2022-11-04T01:15:40;3.20;;;2.90;;
18818;SDS011;9537;45.594;9.294;2022-11-04T01:16:41;4.10;;;3.30;;
18818;SDS011;9537;45.594;9.294;2022-11-04T01:17:43;4.50;;;3.10;;
18818;SDS011;9537;45.594;9.294;2022-11-04T01:18:44;4.83;;;3.53;;
18818;SDS011;9537;45.594;9.294;2022-11-04T01:19:46;4.17;;;2.93;;
18818;SDS011;9537;45.594;9.294;2022-11-04T01:20:47;3.83;;;2.90;;
18818;SDS011;9537;45.594;9.294;2022-11-04T01:21:50;3.77;;;2.90;;
18818;SDS011;9537;45.594;9.294;2022-11-04T01:22:52;3.80;;;3.20;;
18818;SDS011;9537;45.594;9.294;2022-11-04T01:23:54;3.33;;;2.93;;
18818;SDS011;9537;45.594;9.294;2022-11-04T01:24:55;5.13;;;3.20;;
18818;SDS011;9537;45.594;9.294;2022-11-04T01:25:58;3.50;;;2.90;;
18818;SDS011;9537;45.594;9.294;2022-11-04T01:26:59;3.30;;;3.00;;
18818;SDS011;9537;45.594;9.294;2022-11-04T01:28:01;5.00;;;2.63;;
18818;SDS011;9537;45.594;9.294;2022-11-04T01:29:02;3.20;;;2.57;;
18818;SDS011;9537;45.594;9.294;2022-11-04T01:30:05;3.17;;;2.57;;
18818;SDS011;9537;45.594;9.294;2022-11-04T01:31:09;3.50;;;2.50;;
18818;SDS011;9537;45.594;9.294;2022-11-04T01:32:11;2.93;;;2.53;;
18818;SDS011;9537;45.594;9.294;2022-11-04T01:33:13;3.83;;;3.00;;
18818;SDS011;9537;45.594;9.294;2022-11-04T01:34:15;3.30;;;2.60;;
18818;SDS011;9537;45.594;9.294;2022-11-04T01:35:16;3.33;;;2.90;;
18818;SDS011;9537;45.594;9.294;2022-11-04T01:36:18;3.20;;;2.90;;
18818;SDS011;9537;45.594;9.294;2022-11-04T01:37:20;4.10;;;2.60;;
18818;SDS011;9537;45.594;9.294;2022-11-04T01:38:22;4.10;;;2.87;;
18818;SDS011;9537;45.594;9.294;2022-11-04T01:39:23;3.70;;;2.80;;
18818;SDS011;9537;45.594;9.294;2022-11-04T01:40:25;6.50;;;2.63;;
18818;SDS011;9537;45.594;9.294;2022-11-04T01:41:28;2.63;;;2.33;;
18818;SDS011;9537;45.594;9.294;2022-11-04T01:42:32;3.50;;;2.60;;
18818;SDS011;9537;45.594;9.294;2022-11-04T01:43:43;3.83;;;2.73;;
18818;SDS011;9537;45.594;9.294;2022-11-04T01:44:50;2.83;;;2.57;;
18818;SDS011;9537;45.594;9.294;2022-11-04T01:45:53;3.33;;;2.40;;
18818;SDS011;9537;45.594;9.294;2022-11-04T01:47:00;3.27;;;2.80;;
18818;SDS011;9537;45.594;9.294;2022-11-04T01:48:02;3.30;;;2.60;;
18818;SDS011;9537;45.594;9.294;2022-11-04T01:49:17;2.57;;;2.30;;
18818;SDS011;9537;45.594;9.294;2022-11-04T01:50:25;2.73;;;2.20;;
18818;SDS011;9537;45.594;9.294;2022-11-04T01:51:31;2.80;;;2.30;;
18818;SDS011;9537;45.594;9.294;2022-11-04T01:52:36;2.97;;;2.40;;
18818;SDS011;9537;45.594;9.294;2022-11-04T01:53:45;3.40;;;2.83;;
18818;SDS011;9537;45.594;9.294;2022-11-04T01:54:47;4.53;;;3.10;;
18818;SDS011;9537;45.594;9.294;2022-11-04T01:55:53;2.57;;;2.37;;
18818;SDS011;9537;45.594;9.294;2022-11-04T01:56:56;3.57;;;2.50;;
18818;SDS011;9537;45.594;9.294;2022-11-04T01:58:02;3.97;;;2.43;;
18818;SDS011;9537;45.594;9.294;2022-11-04T01:59:06;2.97;;;2.60;;
18818;SDS011;9537;45.594;9.294;2022-11-04T02:00:13;4.17;;;2.47;;
18818;SDS011;9537;45.594;9.294;2022-11-04T02:01:15;2.67;;;1.93;;
18818;SDS011;9537;45.594;9.294;2022-11-04T02:02:20;3.50;;;2.10;;
18818;SDS011;9537;45.594;9.294;2022-11-04T02:03:22;3.87;;;2.27;;
18818;SDS011;9537;45.594;9.294;2022-11-04T02:04:27;2.67;;;2.20;;
18818;SDS011;9537;45.594;9.294;2022-11-04T02:05:30;4.20;;;2.37;;
18818;SDS011;9537;45.594;9.294;2022-11-04T02:06:33;3.70;;;2.37;;
18818;SDS011;9537;45.594;9.294;2022-11-04T02:07:34;2.97;;;2.30;;
18818;SDS011;9537;45.594;9.294;2022-11-04T02:08:37;3.17;;;2.40;;
18818;SDS011;9537;45.594;9.294;2022-11-04T02:09:40;4.10;;;2.53;;
18818;SDS011;9537;45.594;9.294;2022-11-04T02:10:45;4.37;;;2.23;;
18818;SDS011;9537;45.594;9.294;2022-11-04T02:11:51;3.23;;;2.20;;
18818;SDS011;9537;45.594;9.294;2022-11-04T02:13:10;3.47;;;1.83;;
18818;SDS011;9537;45.594;9.294;2022-11-04T02:14:11;2.33;;;2.10;;
18818;SDS011;9537;45.594;9.294;2022-11-04T02:15:12;4.23;;;2.03;;
18818;SDS011;9537;45.594;9.294;2022-11-04T02:16:16;2.40;;;1.77;;
18818;SDS011;9537;45.594;9.294;2022-11-04T02:17:28;3.33;;;2.10;;
18818;SDS011;9537;45.594;9.294;2022-11-04T02:18:43;2.77;;;1.93;;
18818;SDS011;9537;45.594;9.294;2022-11-04T02:19:57;2.17;;;1.93;;
18818;SDS011;9537;45.594;9.294;2022-11-04T02:21:11;2.30;;;1.70;;
18818;SDS011;9537;45.594;9.294;2022-11-04T02:22:27;1.80;;;1.57;;
18818;SDS011;9537;45.594;9.294;2022-11-04T02:25:26;1.60;;;1.20;;
18818;SDS011;9537;45.594;9.294;2022-11-04T02:26:49;2.03;;;1.30;;
18818;SDS011;9537;45.594;9.294;2022-11-04T02:28:26;1.30;;;1.20;;
18818;SDS011;9537;45.594;9.294;2022-11-04T02:31:17;2.63;;;1.00;;
18818;SDS011;9537;45.594;9.294;2022-11-04T02:32:29;1.80;;;1.37;;
18818;SDS011;9537;45.594;9.294;2022-11-04T02:33:45;1.40;;;1.20;;
18818;SDS011;9537;45.594;9.294;2022-11-04T02:34:53;1.43;;;1.03;;
18818;SDS011;9537;45.594;9.294;2022-11-04T02:36:04;1.37;;;1.20;;
18818;SDS011;9537;45.594;9.294;2022-11-04T02:37:18;1.77;;;1.40;;
18818;SDS011;9537;45.594;9.294;2022-11-04T02:38:32;1.93;;;1.37;;
18818;SDS011;9537;45.594;9.294;2022-11-04T02:39:42;1.67;;;1.30;;
18818;SDS011;9537;45.594;9.294;2022-11-04T02:40:53;1.90;;;1.07;;
18818;SDS011;9537;45.594;9.294;2022-11-04T02:42:03;2.10;;;1.20;;
18818;SDS011;9537;45.594;9.294;2022-11-04T02:43:11;1.33;;;1.20;;
18818;SDS011;9537;45.594;9.294;2022-11-04T02:44:21;2.10;;;1.07;;
18818;SDS011;9537;45.594;9.294;2022-11-04T02:45:34;1.30;;;1.20;;
18818;SDS011;9537;45.594;9.294;2022-11-04T02:46:41;1.90;;;1.60;;
18818;SDS011;9537;45.594;9.294;2022-11-04T02:47:49;1.70;;;1.30;;
18818;SDS011;9537;45.594;9.294;2022-11-04T02:48:56;1.30;;;1.20;;
18818;SDS011;9537;45.594;9.294;2022-11-04T02:50:04;1.37;;;1.00;;
18818;SDS011;9537;45.594;9.294;2022-11-04T02:51:12;1.30;;;1.20;;
18818;SDS011;9537;45.594;9.294;2022-11-04T02:52:19;2.47;;;1.50;;
18818;SDS011;9537;45.594;9.294;2022-11-04T02:53:30;1.70;;;1.20;;
18818;SDS011;9537;45.594;9.294;2022-11-04T02:54:37;0.97;;;0.90;;
18818;SDS011;9537;45.594;9.294;2022-11-04T02:55:44;0.97;;;0.80;;
18818;SDS011;9537;45.594;9.294;2022-11-04T02:56:50;0.83;;;0.80;;
18818;SDS011;9537;45.594;9.294;2022-11-04T02:57:52;1.23;;;1.00;;
18818;SDS011;9537;45.594;9.294;2022-11-04T02:58:57;0.80;;;0.80;;
18818;SDS011;9537;45.594;9.294;2022-11-04T03:00:04;1.03;;;0.60;;
18818;SDS011;9537;45.594;9.294;2022-11-04T03:01:11;1.23;;;0.90;;
18818;SDS011;9537;45.594;9.294;2022-11-04T03:02:17;0.80;;;0.70;;
18818;SDS011;9537;45.594;9.294;2022-11-04T03:03:23;2.20;;;0.87;;
18818;SDS011;9537;45.594;9.294;2022-11-04T03:04:29;1.80;;;0.80;;
18818;SDS011;9537;45.594;9.294;2022-11-04T03:05:36;0.60;;;0.60;;
18818;SDS011;9537;45.594;9.294;2022-11-04T03:06:40;0.60;;;0.60;;
18818;SDS011;9537;45.594;9.294;2022-11-04T03:07:45;0.77;;;0.60;;
18818;SDS011;9537;45.594;9.294;2022-11-04T03:08:48;0.73;;;0.70;;
18818;SDS011;9537;45.594;9.294;2022-11-04T03:09:54;1.37;;;0.70;;
18818;SDS011;9537;45.594;9.294;2022-11-04T03:11:00;1.40;;;0.63;;
18818;SDS011;9537;45.594;9.294;2022-11-04T03:12:08;0.67;;;0.63;;
18818;SDS011;9537;45.594;9.294;2022-11-04T03:13:17;1.07;;;0.60;;
18818;SDS011;9537;45.594;9.294;2022-11-04T03:14:23;0.40;;;0.40;;
18818;SDS011;9537;45.594;9.294;2022-11-04T03:15:30;0.40;;;0.40;;
18818;SDS011;9537;45.594;9.294;2022-11-04T03:16:37;0.40;;;0.40;;
18818;SDS011;9537;45.594;9.294;2022-11-04T03:17:46;0.40;;;0.40;;
18818;SDS011;9537;45.594;9.294;2022-11-04T03:18:54;0.37;;;0.37;;
18818;SDS011;9537;45.594;9.294;2022-11-04T03:20:00;0.40;;;0.40;;
18818;SDS011;9537;45.594;9.294;2022-11-04T03:21:07;0.40;;;0.40;;
18818;SDS011;9537;45.594;9.294;2022-11-04T03:22:13;0.50;;;0.50;;
18818;SDS011;9537;45.594;9.294;2022-11-04T03:23:18;0.37;;;0.37;;
18818;SDS011;9537;45.594;9.294;2022-11-04T03:24:19;0.30;;;0.30;;
18818;SDS011;9537;45.594;9.294;2022-11-04T03:25:22;0.30;;;0.30;;
18818;SDS011;9537;45.594;9.294;2022-11-04T03:26:27;0.50;;;0.30;;
18818;SDS011;9537;45.594;9.294;2022-11-04T03:27:34;0.57;;;0.50;;
18818;SDS011;9537;45.594;9.294;2022-11-04T03:28:43;0.87;;;0.40;;
18818;SDS011;9537;45.594;9.294;2022-11-04T03:29:54;0.70;;;0.40;;
18818;SDS011;9537;45.594;9.294;2022-11-04T03:31:00;1.17;;;0.40;;
18818;SDS011;9537;45.594;9.294;2022-11-04T03:32:07;0.43;;;0.43;;
18818;SDS011;9537;45.594;9.294;2022-11-04T03:33:18;1.90;;;0.50;;
18818;SDS011;9537;45.594;9.294;2022-11-04T03:34:27;0.80;;;0.47;;
18818;SDS011;9537;45.594;9.294;2022-11-04T03:35:28;0.63;;;0.50;;
18818;SDS011;9537;45.594;9.294;2022-11-04T03:36:31;0.50;;;0.40;;
18818;SDS011;9537;45.594;9.294;2022-11-04T03:37:32;0.40;;;0.40;;
18818;SDS011;9537;45.594;9.294;2022-11-04T03:38:34;0.50;;;0.50;;
18818;SDS011;9537;45.594;9.294;2022-11-04T03:39:35;0.37;;;0.37;;
18818;SDS011;9537;45.594;9.294;2022-11-04T03:40:39;0.50;;;0.50;;
18818;SDS011;9537;45.594;9.294;2022-11-04T03:41:41;0.30;;;0.30;;
18818;SDS011;9537;45.594;9.294;2022-11-04T03:42:52;0.57;;;0.40;;
18818;SDS011;9537;45.594;9.294;2022-11-04T03:43:56;0.30;;;0.27;;
18818;SDS011;9537;45.594;9.294;2022-11-04T03:44:58;0.30;;;0.30;;
18818;SDS011;9537;45.594;9.294;2022-11-04T03:45:59;0.30;;;0.30;;
18818;SDS011;9537;45.594;9.294;2022-11-04T03:47:01;0.77;;;0.40;;
18818;SDS011;9537;45.594;9.294;2022-11-04T03:48:04;0.60;;;0.60;;
18818;SDS011;9537;45.594;9.294;2022-11-04T03:49:07;0.43;;;0.43;;
18818;SDS011;9537;45.594;9.294;2022-11-04T03:50:11;1.10;;;0.40;;
18818;SDS011;9537;45.594;9.294;2022-11-04T03:51:17;0.50;;;0.50;;
18818;SDS011;9537;45.594;9.294;2022-11-04T03:52:19;0.40;;;0.40;;
18818;SDS011;9537;45.594;9.294;2022-11-04T03:53:21;1.23;;;0.37;;
18818;SDS011;9537;45.594;9.294;2022-11-04T03:54:26;0.50;;;0.47;;
18818;SDS011;9537;45.594;9.294;2022-11-04T03:55:29;0.83;;;0.53;;
18818;SDS011;9537;45.594;9.294;2022-11-04T03:58:19;1.17;;;0.50;;
18818;SDS011;9537;45.594;9.294;2022-11-04T03:59:43;0.50;;;0.40;;
18818;SDS011;9537;45.594;9.294;2022-11-04T04:00:59;0.30;;;0.30;;
18818;SDS011;9537;45.594;9.294;2022-11-04T04:02:10;1.07;;;0.60;;
18818;SDS011;9537;45.594;9.294;2022-11-04T04:03:21;0.30;;;0.30;;
18818;SDS011;9537;45.594;9.294;2022-11-04T04:04:28;0.53;;;0.40;;
18818;SDS011;9537;45.594;9.294;2022-11-04T04:05:34;0.57;;;0.37;;
18818;SDS011;9537;45.594;9.294;2022-11-04T04:06:43;1.07;;;0.57;;
18818;SDS011;9537;45.594;9.294;2022-11-04T04:07:47;1.87;;;0.80;;
18818;SDS011;9537;45.594;9.294;2022-11-04T04:08:54;1.23;;;0.70;;
18818;SDS011;9537;45.594;9.294;2022-11-04T04:10:03;1.07;;;0.40;;
18818;SDS011;9537;45.594;9.294;2022-11-04T04:11:28;1.77;;;0.60;;
18818;SDS011;9537;45.594;9.294;2022-11-04T04:12:37;0.97;;;0.40;;
18818;SDS011;9537;45.594;9.294;2022-11-04T04:13:41;0.50;;;0.30;;
18818;SDS011;9537;45.594;9.294;2022-11-04T04:14:50;0.50;;;0.50;;
18818;SDS011;9537;45.594;9.294;2022-11-04T04:15:55;1.70;;;0.60;;
18818;SDS011;9537;45.594;9.294;2022-11-04T04:17:00;0.67;;;0.30;;
18818;SDS011;9537;45.594;9.294;2022-11-04T04:18:05;0.20;;;0.20;;
18818;SDS011;9537;45.594;9.294;2022-11-04T04:19:15;0.27;;;0.13;;
18818;SDS011;9537;45.594;9.294;2022-11-04T04:20:20;0.47;;;0.27;;
18818;SDS011;9537;45.594;9.294;2022-11-04T04:21:27;0.30;;;0.20;;
18818;SDS011;9537;45.594;9.294;2022-11-04T04:22:32;0.20;;;0.20;;
18818;SDS011;9537;45.594;9.294;2022-11-04T04:23:38;0.73;;;0.27;;
18818;SDS011;9537;45.594;9.294;2022-11-04T04:25:00;0.43;;;0.30;;
18818;SDS011;9537;45.594;9.294;2022-11-04T04:26:24;0.53;;;0.20;;
18818;SDS011;9537;45.594;9.294;2022-11-04T04:27:45;0.10;;;0.10;;
18818;SDS011;9537;45.594;9.294;2022-11-04T04:28:49;1.60;;;0.30;;
18818;SDS011;9537;45.594;9.294;2022-11-04T04:29:53;0.20;;;0.20;;
18818;SDS011;9537;45.594;9.294;2022-11-04T04:30:55;0.53;;;0.40;;
18818;SDS011;9537;45.594;9.294;2022-11-04T04:31:57;0.20;;;0.20;;
18818;SDS011;9537;45.594;9.294;2022-11-04T04:33:02;0.60;;;0.30;;
18818;SDS011;9537;45.594;9.294;2022-11-04T04:34:07;0.20;;;0.20;;
18818;SDS011;9537;45.594;9.294;2022-11-04T04:35:11;0.10;;;0.10;;
18818;SDS011;9537;45.594;9.294;2022-11-04T04:36:31;0.10;;;0.10;;
18818;SDS011;9537;45.594;9.294;2022-11-04T04:37:39;0.60;;;0.30;;
18818;SDS011;9537;45.594;9.294;2022-11-04T04:38:41;0.20;;;0.20;;
18818;SDS011;9537;45.594;9.294;2022-11-04T04:40:01;0.20;;;0.20;;
18818;SDS011;9537;45.594;9.294;2022-11-04T04:41:22;0.27;;;0.20;;
18818;SDS011;9537;45.594;9.294;2022-11-04T04:42:49;1.07;;;0.30;;
18818;SDS011;9537;45.594;9.294;2022-11-04T04:44:11;0.43;;;0.30;;
18818;SDS011;9537;45.594;9.294;2022-11-04T04:45:35;0.53;;;0.30;;
18818;SDS011;9537;45.594;9.294;2022-11-04T04:46:40;0.47;;;0.30;;
18818;SDS011;9537;45.594;9.294;2022-11-04T04:47:44;0.73;;;0.20;;
18818;SDS011;9537;45.594;9.294;2022-11-04T04:48:47;0.27;;;0.20;;
18818;SDS011;9537;45.594;9.294;2022-11-04T04:49:48;0.43;;;0.30;;
18818;SDS011;9537;45.594;9.294;2022-11-04T04:50:52;0.50;;;0.30;;
18818;SDS011;9537;45.594;9.294;2022-11-04T04:52:02;0.37;;;0.30;;
18818;SDS011;9537;45.594;9.294;2022-11-04T04:53:06;0.23;;;0.23;;
18818;SDS011;9537;45.594;9.294;2022-11-04T04:54:08;0.53;;;0.30;;
18818;SDS011;9537;45.594;9.294;2022-11-04T04:55:09;0.47;;;0.37;;
18818;SDS011;9537;45.594;9.294;2022-11-04T04:56:12;0.20;;;0.20;;
18818;SDS011;9537;45.594;9.294;2022-11-04T04:57:13;2.07;;;0.30;;
18818;SDS011;9537;45.594;9.294;2022-11-04T04:58:15;0.90;;;0.37;;
18818;SDS011;9537;45.594;9.294;2022-11-04T04:59:17;0.20;;;0.20;;
18818;SDS011;9537;45.594;9.294;2022-11-04T05:00:19;0.20;;;0.20;;
18818;SDS011;9537;45.594;9.294;2022-11-04T05:01:22;0.20;;;0.20;;
18818;SDS011;9537;45.594;9.294;2022-11-04T05:02:23;0.30;;;0.30;;
18818;SDS011;9537;45.594;9.294;2022-11-04T05:03:25;0.60;;;0.30;;
18818;SDS011;9537;45.594;9.294;2022-11-04T05:04:26;0.20;;;0.20;;
18818;SDS011;9537;45.594;9.294;2022-11-04T05:05:28;2.23;;;0.30;;
18818;SDS011;9537;45.594;9.294;2022-11-04T05:06:31;0.30;;;0.30;;
18818;SDS011;9537;45.594;9.294;2022-11-04T05:07:33;0.33;;;0.30;;
18818;SDS011;9537;45.594;9.294;2022-11-04T05:08:34;0.30;;;0.30;;
18818;SDS011;9537;45.594;9.294;2022-11-04T05:09:36;0.10;;;0.10;;
18818;SDS011;9537;45.594;9.294;2022-11-04T05:10:37;0.20;;;0.20;;
18818;SDS011;9537;45.594;9.294;2022-11-04T05:11:39;0.20;;;0.20;;
18818;SDS011;9537;45.594;9.294;2022-11-04T05:12:40;0.40;;;0.30;;
18818;SDS011;9537;45.594;9.294;2022-11-04T05:14:00;1.33;;;0.30;;
18818;SDS011;9537;45.594;9.294;2022-11-04T05:15:03;4.17;;;0.40;;
18818;SDS011;9537;45.594;9.294;2022-11-04T05:16:05;0.27;;;0.27;;
18818;SDS011;9537;45.594;9.294;2022-11-04T05:17:08;0.10;;;0.10;;
18818;SDS011;9537;45.594;9.294;2022-11-04T05:18:09;2.10;;;0.30;;
18818;SDS011;9537;45.594;9.294;2022-11-04T05:19:12;0.53;;;0.20;;
18818;SDS011;9537;45.594;9.294;2022-11-04T05:20:13;0.23;;;0.20;;
18818;SDS011;9537;45.594;9.294;2022-11-04T05:21:17;0.53;;;0.20;;
18818;SDS011;9537;45.594;9.294;2022-11-04T05:22:19;0.23;;;0.20;;
18818;SDS011;9537;45.594;9.294;2022-11-04T05:23:22;0.20;;;0.20;;
18818;SDS011;9537;45.594;9.294;2022-11-04T05:24:22;0.20;;;0.20;;
18818;SDS011;9537;45.594;9.294;2022-11-04T05:25:24;0.20;;;0.20;;
18818;SDS011;9537;45.594;9.294;2022-11-04T05:26:25;0.40;;;0.40;;
18818;SDS011;9537;45.594;9.294;2022-11-04T05:27:27;1.17;;;0.20;;
18818;SDS011;9537;45.594;9.294;2022-11-04T05:28:29;0.20;;;0.20;;
18818;SDS011;9537;45.594;9.294;2022-11-04T05:29:31;0.53;;;0.40;;
18818;SDS011;9537;45.594;9.294;2022-11-04T05:30:32;0.80;;;0.20;;
18818;SDS011;9537;45.594;9.294;2022-11-04T05:31:35;1.80;;;0.30;;
18818;SDS011;9537;45.594;9.294;2022-11-04T05:32:36;0.27;;;0.23;;
18818;SDS011;9537;45.594;9.294;2022-11-04T05:33:38;0.77;;;0.37;;
18818;SDS011;9537;45.594;9.294;2022-11-04T05:34:39;0.87;;;0.57;;
18818;SDS011;9537;45.594;9.294;2022-11-04T05:35:41;2.13;;;0.33;;
18818;SDS011;9537;45.594;9.294;2022-11-04T05:36:42;1.20;;;0.20;;
18818;SDS011;9537;45.594;9.294;2022-11-04T05:37:45;0.30;;;0.30;;
18818;SDS011;9537;45.594;9.294;2022-11-04T05:38:48;0.30;;;0.30;;
18818;SDS011;9537;45.594;9.294;2022-11-04T05:39:51;1.83;;;0.30;;
18818;SDS011;9537;45.594;9.294;2022-11-04T05:40:52;0.20;;;0.20;;
18818;SDS011;9537;45.594;9.294;2022-11-04T05:41:54;0.43;;;0.30;;
18818;SDS011;9537;45.594;9.294;2022-11-04T05:42:56;0.67;;;0.40;;
18818;SDS011;9537;45.594;9.294;2022-11-04T05:44:00;5.37;;;0.43;;
18818;SDS011;9537;45.594;9.294;2022-11-04T05:45:02;0.73;;;0.40;;
18818;SDS011;9537;45.594;9.294;2022-11-04T05:46:06;1.80;;;0.60;;
18818;SDS011;9537;45.594;9.294;2022-11-04T05:47:07;0.57;;;0.30;;
18818;SDS011;9537;45.594;9.294;2022-11-04T05:48:09;0.67;;;0.30;;
18818;SDS011;9537;45.594;9.294;2022-11-04T05:49:10;2.03;;;0.27;;
18818;SDS011;9537;45.594;9.294;2022-11-04T05:50:13;0.30;;;0.30;;
18818;SDS011;9537;45.594;9.294;2022-11-04T05:51:14;1.93;;;0.37;;
18818;SDS011;9537;45.594;9.294;2022-11-04T05:52:17;0.57;;;0.40;;
18818;SDS011;9537;45.594;9.294;2022-11-04T05:53:19;0.27;;;0.27;;
18818;SDS011;9537;45.594;9.294;2022-11-04T05:54:22;0.60;;;0.30;;
18818;SDS011;9537;45.594;9.294;2022-11-04T05:55:23;1.70;;;0.30;;
18818;SDS011;9537;45.594;9.294;2022-11-04T05:56:25;0.73;;;0.40;;
18818;SDS011;9537;45.594;9.294;2022-11-04T05:57:26;1.17;;;0.40;;
18818;SDS011;9537;45.594;9.294;2022-11-04T05:58:28;0.60;;;0.33;;
18818;SDS011;9537;45.594;9.294;2022-11-04T05:59:29;0.30;;;0.30;;
18818;SDS011;9537;45.594;9.294;2022-11-04T06:00:32;0.53;;;0.33;;
18818;SDS011;9537;45.594;9.294;2022-11-04T06:01:34;0.30;;;0.30;;
18818;SDS011;9537;45.594;9.294;2022-11-04T06:02:37;0.20;;;0.20;;
18818;SDS011;9537;45.594;9.294;2022-11-04T06:03:39;0.50;;;0.30;;
18818;SDS011;9537;45.594;9.294;2022-11-04T06:04:40;0.77;;;0.27;;
18818;SDS011;9537;45.594;9.294;2022-11-04T06:05:42;0.97;;;0.40;;
18818;SDS011;9537;45.594;9.294;2022-11-04T06:06:44;1.00;;;0.30;;
18818;SDS011;9537;45.594;9.294;2022-11-04T06:07:46;2.17;;;0.50;;
18818;SDS011;9537;45.594;9.294;2022-11-04T06:08:49;0.30;;;0.30;;
18818;SDS011;9537;45.594;9.294;2022-11-04T06:09:53;0.30;;;0.30;;
18818;SDS011;9537;45.594;9.294;2022-11-04T06:10:53;0.20;;;0.20;;
18818;SDS011;9537;45.594;9.294;2022-11-04T06:11:56;0.20;;;0.20;;
18818;SDS011;9537;45.594;9.294;2022-11-04T06:12:57;1.13;;;0.30;;
18818;SDS011;9537;45.594;9.294;2022-11-04T06:13:59;0.30;;;0.30;;
18818;SDS011;9537;45.594;9.294;2022-11-04T06:15:00;0.20;;;0.20;;
18818;SDS011;9537;45.594;9.294;2022-11-04T06:16:02;0.13;;;0.13;;
18818;SDS011;9537;45.594;9.294;2022-11-04T06:17:03;0.40;;;0.30;;
18818;SDS011;9537;45.594;9.294;2022-11-04T06:18:05;1.90;;;0.33;;
18818;SDS011;9537;45.594;9.294;2022-11-04T06:19:07;0.30;;;0.30;;
18818;SDS011;9537;45.594;9.294;2022-11-04T06:20:08;0.40;;;0.30;;
18818;SDS011;9537;45.594;9.294;2022-11-04T06:21:19;0.20;;;0.20;;
18818;SDS011;9537;45.594;9.294;2022-11-04T06:22:24;0.20;;;0.20;;
18818;SDS011;9537;45.594;9.294;2022-11-04T06:23:26;0.20;;;0.20;;
18818;SDS011;9537;45.594;9.294;2022-11-04T06:24:28;0.20;;;0.20;;
18818;SDS011;9537;45.594;9.294;2022-11-04T06:25:31;0.10;;;0.10;;
18818;SDS011;9537;45.594;9.294;2022-11-04T06:26:32;1.23;;;0.27;;
18818;SDS011;9537;45.594;9.294;2022-11-04T06:27:34;0.13;;;0.13;;
18818;SDS011;9537;45.594;9.294;2022-11-04T06:28:35;0.30;;;0.30;;
18818;SDS011;9537;45.594;9.294;2022-11-04T06:29:38;0.20;;;0.20;;
18818;SDS011;9537;45.594;9.294;2022-11-04T06:30:41;0.20;;;0.20;;
18818;SDS011;9537;45.594;9.294;2022-11-04T06:31:42;0.73;;;0.27;;
18818;SDS011;9537;45.594;9.294;2022-11-04T06:32:44;0.37;;;0.33;;
18818;SDS011;9537;45.594;9.294;2022-11-04T06:33:45;0.37;;;0.27;;
18818;SDS011;9537;45.594;9.294;2022-11-04T06:34:48;0.17;;;0.13;;
18818;SDS011;9537;45.594;9.294;2022-11-04T06:35:50;1.70;;;0.40;;
18818;SDS011;9537;45.594;9.294;2022-11-04T06:36:51;0.53;;;0.20;;
18818;SDS011;9537;45.594;9.294;2022-11-04T06:37:53;0.33;;;0.20;;
18818;SDS011;9537;45.594;9.294;2022-11-04T06:38:54;2.47;;;0.40;;
18818;SDS011;9537;45.594;9.294;2022-11-04T06:39:58;0.20;;;0.20;;
18818;SDS011;9537;45.594;9.294;2022-11-04T06:41:00;0.20;;;0.20;;
18818;SDS011;9537;45.594;9.294;2022-11-04T06:42:02;0.13;;;0.13;;
18818;SDS011;9537;45.594;9.294;2022-11-04T06:43:03;0.40;;;0.30;;
18818;SDS011;9537;45.594;9.294;2022-11-04T06:44:05;0.20;;;0.20;;
18818;SDS011;9537;45.594;9.294;2022-11-04T06:45:07;0.20;;;0.20;;